Time;durP1;ratioP1;P1;durP2;ratioP2;P2;SDS_P1;SDS_P2;PMS_P1;PMS_P2;Temp;Humidity;BMP_temperature;BMP_pressure;BME280_temperature;BME280_humidity;BME280_pressure;Samples;Min_cycle;Max_cycle;Signal;HPM_P1;HPM_P2
2020/12/27 00:02:11;;;;;;;39.92;19.50;;;51.60;2227.20;;;;;;5118611;28;20019;-65
2020/12/27 00:04:38;;;;;;;36.05;18.17;;;51.60;2227.20;;;;;;5119203;28;20027;-65
2020/12/27 00:07:07;;;;;;;35.55;18.80;;;51.50;2227.20;;;;;;5118301;28;20027;-65
2020/12/27 00:09:33;;;;;;;38.17;18.38;;;51.50;2227.20;;;;;;5118445;28;20116;-63
2020/12/27 00:11:59;;;;;;;38.92;17.90;;;51.50;2227.20;;;;;;5118716;28;20080;-65
2020/12/27 00:14:25;;;;;;;35.63;17.17;;;51.60;2227.20;;;;;;5118719;28;20027;-64
2020/12/27 00:16:51;;;;;;;35.70;17.30;;;51.60;2227.20;;;;;;5118570;28;20023;-63
2020/12/27 00:19:17;;;;;;;34.75;17.73;;;51.60;2227.20;;;;;;5117982;28;20035;-65
2020/12/27 00:21:42;;;;;;;34.45;16.95;;;51.60;2227.20;;;;;;5118583;28;20070;-65
2020/12/27 00:24:08;;;;;;;37.95;18.40;;;51.60;2227.20;;;;;;5118790;28;20024;-64
2020/12/27 00:26:36;;;;;;;32.97;17.58;;;51.60;2227.20;;;;;;5118451;28;20031;-65
2020/12/27 00:29:02;;;;;;;33.75;16.92;;;51.50;2227.20;;;;;;5117804;28;20034;-65
2020/12/27 00:31:27;;;;;;;33.47;17.48;;;51.60;2227.20;;;;;;5118359;28;20019;-64
2020/12/27 00:33:53;;;;;;;34.65;17.17;;;51.50;2227.20;;;;;;5117628;28;20047;-65
2020/12/27 00:36:20;;;;;;;28.65;16.45;;;51.60;2227.20;;;;;;5118202;28;20045;-66
2020/12/27 00:38:47;;;;;;;29.27;15.45;;;51.60;2227.20;;;;;;5118254;28;20345;-65
2020/12/27 00:41:22;;;;;;;30.60;15.55;;;51.60;2227.20;;;;;;5117930;28;20028;-66
2020/12/27 00:43:49;;;;;;;30.67;16.48;;;51.60;2227.20;;;;;;5118520;28;20019;-65
2020/12/27 00:46:15;;;;;;;30.52;16.25;;;51.70;2227.20;;;;;;5118119;28;20063;-64
2020/12/27 00:48:41;;;;;;;34.38;17.38;;;51.70;2227.20;;;;;;5118095;28;20400;-64
2020/12/27 00:51:07;;;;;;;31.75;15.80;;;51.70;2227.20;;;;;;5117477;28;20106;-64
2020/12/27 00:53:33;;;;;;;30.33;15.68;;;51.70;2227.20;;;;;;5118037;28;20062;-64
2020/12/27 00:55:58;;;;;;;31.98;16.45;;;51.70;2227.20;;;;;;5117568;28;20050;-63
2020/12/27 00:58:24;;;;;;;28.65;14.60;;;51.60;2227.20;;;;;;5117859;28;20066;-64
2020/12/27 01:00:50;;;;;;;30.48;15.57;;;51.60;2227.20;;;;;;5117603;28;20064;-65
2020/12/27 01:03:16;;;;;;;29.88;15.93;;;51.60;2227.20;;;;;;5117636;28;20030;-66
2020/12/27 01:05:42;;;;;;;27.27;14.57;;;51.50;2227.20;;;;;;5118167;28;20038;-65
2020/12/27 01:08:08;;;;;;;30.40;15.60;;;51.50;2227.20;;;;;;5117291;28;20031;-64
2020/12/27 01:10:34;;;;;;;27.98;13.98;;;51.50;2227.20;;;;;;5117809;28;20298;-64
2020/12/27 01:13:00;;;;;;;30.13;14.32;;;51.50;2227.20;;;;;;5118053;28;20081;-66
2020/12/27 01:15:25;;;;;;;26.23;15.00;;;51.40;2227.20;;;;;;5117379;28;20027;-64
2020/12/27 01:17:51;;;;;;;26.60;14.05;;;51.40;2227.20;;;;;;5117986;28;20035;-66
2020/12/27 01:20:17;;;;;;;28.17;13.98;;;51.30;2227.20;;;;;;5117975;28;20027;-64
2020/12/27 01:22:43;;;;;;;30.58;15.18;;;51.30;2227.20;;;;;;5117095;28;20148;-64
2020/12/27 01:25:10;;;;;;;30.58;14.75;;;51.30;2227.20;;;;;;5117087;28;20024;-66
2020/12/27 01:27:36;;;;;;;27.42;13.73;;;51.30;2227.20;;;;;;5117272;28;20055;-65
2020/12/27 01:30:03;;;;;;;29.52;14.40;;;51.20;2227.20;;;;;;5117643;28;20035;-65
2020/12/27 01:32:29;;;;;;;27.88;14.93;;;51.30;2227.20;;;;;;5120136;28;20451;-64
2020/12/27 01:34:55;;;;;;;23.70;13.50;;;51.20;2227.20;;;;;;5121818;28;20027;-64
2020/12/27 01:37:21;;;;;;;29.35;14.65;;;51.30;2227.20;;;;;;5121661;28;20032;-65
2020/12/27 01:39:47;;;;;;;26.83;15.30;;;51.30;2227.20;;;;;;5122281;28;20039;-65
2020/12/27 01:42:13;;;;;;;31.15;15.07;;;51.30;2227.20;;;;;;5121639;28;20024;-64
2020/12/27 01:44:39;;;;;;;25.70;14.43;;;51.20;2227.20;;;;;;5121372;28;20024;-67
2020/12/27 01:47:34;;;;;;;26.38;14.07;;;51.30;2227.20;;;;;;5121267;28;20029;-66
2020/12/27 01:50:01;;;;;;;25.30;12.98;;;51.40;2227.20;;;;;;5120814;28;20129;-64
2020/12/27 01:52:27;;;;;;;27.50;13.27;;;51.40;2227.20;;;;;;5121457;28;20104;-63
2020/12/27 01:54:53;;;;;;;24.90;12.63;;;51.30;2227.20;;;;;;5121675;28;20161;-65
2020/12/27 01:57:20;;;;;;;21.92;12.25;;;51.30;2227.20;;;;;;5121033;27;20492;-64
2020/12/27 01:59:47;;;;;;;24.88;12.80;;;51.20;2227.20;;;;;;5121185;28;20020;-64
2020/12/27 02:02:18;;;;;;;20.58;11.88;;;51.30;2227.20;;;;;;5121304;28;20023;-64
2020/12/27 02:04:44;;;;;;;20.48;11.60;;;51.30;2227.20;;;;;;5120424;28;20059;-63
2020/12/27 02:07:12;;;;;;;19.00;10.23;;;51.40;2227.20;;;;;;5121466;28;20055;-65
2020/12/27 02:09:39;;;;;;;18.08;9.95;;;51.40;2227.20;;;;;;5120849;28;20440;-64
2020/12/27 02:12:10;;;;;;;19.83;10.43;;;51.40;2227.20;;;;;;5120573;28;20515;-67
2020/12/27 02:14:37;;;;;;;14.35;8.90;;;51.40;2227.20;;;;;;5121368;28;20031;-64
2020/12/27 02:17:03;;;;;;;16.77;9.77;;;51.30;2227.20;;;;;;5120639;28;20443;-63
2020/12/27 02:19:30;;;;;;;15.27;9.48;;;51.30;2227.20;;;;;;5120700;28;20023;-64
2020/12/27 02:21:56;;;;;;;14.20;8.73;;;51.40;2227.20;;;;;;5121184;28;20405;-65
2020/12/27 02:24:22;;;;;;;15.63;7.93;;;51.40;2227.20;;;;;;5120864;28;20031;-64
2020/12/27 02:26:58;;;;;;;12.57;7.53;;;51.40;2227.20;;;;;;5120574;27;20031;-64
2020/12/27 02:29:26;;;;;;;10.98;6.57;;;51.40;2227.20;;;;;;5120280;28;20336;-66
2020/12/27 02:31:55;;;;;;;9.95;6.40;;;51.40;2227.20;;;;;;5120618;28;20399;-65
2020/12/27 02:34:22;;;;;;;10.52;6.50;;;51.40;2227.20;;;;;;5120163;28;20051;-67
2020/12/27 02:36:49;;;;;;;11.48;6.88;;;51.30;2227.20;;;;;;5120827;28;20038;-64
2020/12/27 02:39:17;;;;;;;13.63;8.27;;;51.30;2227.20;;;;;;5120568;28;20068;-66
2020/12/27 02:41:43;;;;;;;16.77;9.13;;;51.20;2227.20;;;;;;5120272;28;20020;-66
2020/12/27 02:44:09;;;;;;;16.75;10.10;;;51.20;2227.20;;;;;;5120010;28;20027;-65
2020/12/27 02:46:35;;;;;;;15.50;9.95;;;51.20;2227.20;;;;;;5120449;28;20413;-64
2020/12/27 02:49:02;;;;;;;17.88;9.85;;;51.20;2227.20;;;;;;5120405;28;20019;-67
2020/12/27 02:51:28;;;;;;;17.48;9.30;;;51.20;2227.20;;;;;;5120633;28;20055;-65
2020/12/27 02:53:55;;;;;;;15.75;8.85;;;51.20;2227.20;;;;;;5120326;28;20167;-65
2020/12/27 02:56:25;;;;;;;14.35;8.43;;;51.20;2227.20;;;;;;5119865;27;20424;-65
2020/12/27 02:59:02;;;;;;;12.48;8.27;;;51.20;2227.20;;;;;;5120494;27;20085;-64
2020/12/27 03:01:28;;;;;;;11.50;6.97;;;26.50;2201.60;;;;;;5119919;28;20020;-64
2020/12/27 03:03:54;;;;;;;11.70;7.22;;;26.40;2201.60;;;;;;5120404;28;20076;-64
2020/12/27 03:06:20;;;;;;;13.73;7.90;;;26.50;2201.60;;;;;;5120330;28;20024;-65
2020/12/27 03:08:54;;;;;;;10.93;6.65;;;26.50;2201.60;;;;;;5119457;28;20065;-63
2020/12/27 03:11:21;;;;;;;12.05;7.00;;;26.40;2201.60;;;;;;5119656;28;20024;-64
2020/12/27 03:13:47;;;;;;;12.10;7.18;;;26.30;2201.60;;;;;;5119583;28;20330;-67
2020/12/27 03:16:13;;;;;;;12.73;6.57;;;26.40;2201.60;;;;;;5119497;28;20039;-64
2020/12/27 03:18:39;;;;;;;12.35;6.55;;;26.40;2201.60;;;;;;5120092;28;20035;-63
2020/12/27 03:21:04;;;;;;;11.60;6.80;;;26.40;2201.60;;;;;;5119476;28;20028;-66
2020/12/27 03:23:30;;;;;;;12.38;7.68;;;26.40;2201.60;;;;;;5119397;28;20428;-65
2020/12/27 03:25:56;;;;;;;11.85;6.88;;;26.50;2201.60;;;;;;5119917;28;20332;-65
2020/12/27 03:28:22;;;;;;;11.43;6.63;;;26.50;2201.60;;;;;;5119812;28;20146;-65
2020/12/27 03:30:48;;;;;;;13.23;7.43;;;51.20;2227.20;;;;;;5119623;28;20032;-63
2020/12/27 03:33:13;;;;;;;11.82;6.90;;;51.20;2227.20;;;;;;5119762;28;20359;-65
2020/12/27 03:35:39;;;;;;;11.15;6.35;;;51.30;2227.20;;;;;;5119089;28;20037;-64
2020/12/27 03:38:05;;;;;;;10.73;6.30;;;51.30;2227.20;;;;;;5119411;28;20413;-65
2020/12/27 03:40:31;;;;;;;10.90;6.65;;;51.40;2227.20;;;;;;5119666;28;20055;-64
2020/12/27 03:42:56;;;;;;;10.27;5.82;;;51.50;2227.20;;;;;;5119030;28;20023;-64
2020/12/27 03:45:22;;;;;;;10.98;6.30;;;51.50;2227.20;;;;;;5119265;28;20409;-66
2020/12/27 03:47:48;;;;;;;9.52;5.82;;;51.50;2227.20;;;;;;5119166;28;20030;-65
2020/12/27 03:50:14;;;;;;;10.15;6.13;;;51.60;2227.20;;;;;;5119185;28;20028;-63
2020/12/27 03:52:40;;;;;;;9.35;5.50;;;51.60;2227.20;;;;;;5119104;28;20023;-64
2020/12/27 03:55:05;;;;;;;10.43;5.97;;;51.70;2227.20;;;;;;5118520;28;20058;-65
2020/12/27 03:57:31;;;;;;;11.48;6.72;;;51.70;2227.20;;;;;;5118678;28;20065;-67
2020/12/27 03:59:57;;;;;;;7.60;5.03;;;51.70;2227.20;;;;;;5118711;28;20031;-64
2020/12/27 04:02:23;;;;;;;7.78;4.55;;;51.70;2227.20;;;;;;5118973;28;20538;-65
2020/12/27 04:04:48;;;;;;;9.40;5.65;;;51.60;2227.20;;;;;;5118934;28;20329;-64
2020/12/27 04:07:14;;;;;;;9.77;5.65;;;51.60;2227.20;;;;;;5119145;28;20080;-65
2020/12/27 04:09:40;;;;;;;10.32;6.13;;;51.60;2227.20;;;;;;5118566;28;20023;-64
2020/12/27 04:12:06;;;;;;;11.10;5.60;;;51.50;2227.20;;;;;;5118501;28;20096;-64
2020/12/27 04:14:31;;;;;;;10.93;6.15;;;51.50;2227.20;;;;;;5118408;28;20102;-63
2020/12/27 04:16:57;;;;;;;15.27;7.45;;;51.40;2227.20;;;;;;5118477;28;20028;-63
2020/12/27 04:19:23;;;;;;;14.75;7.85;;;51.40;2227.20;;;;;;5118432;28;20424;-64
2020/12/27 04:21:49;;;;;;;15.00;7.82;;;51.40;2227.20;;;;;;5118842;28;20023;-66
2020/12/27 04:24:15;;;;;;;16.48;7.93;;;51.40;2227.20;;;;;;5118531;28;20034;-64
2020/12/27 04:26:41;;;;;;;13.70;7.60;;;51.40;2227.20;;;;;;5118238;28;20023;-64
2020/12/27 04:29:07;;;;;;;16.10;7.93;;;51.40;2227.20;;;;;;5118445;28;20027;-64
2020/12/27 04:31:33;;;;;;;17.23;8.57;;;51.50;2227.20;;;;;;5118101;28;20030;-64
2020/12/27 04:33:59;;;;;;;15.57;8.43;;;51.50;2227.20;;;;;;5118622;28;20034;-64
2020/12/27 04:36:25;;;;;;;19.35;7.75;;;51.50;2227.20;;;;;;5118512;28;20400;-65
2020/12/27 04:38:51;;;;;;;22.30;8.95;;;51.50;2227.20;;;;;;5117725;28;20076;-65
2020/12/27 04:41:18;;;;;;;17.88;8.77;;;51.50;2227.20;;;;;;5118246;28;20099;-65
2020/12/27 04:43:45;;;;;;;22.95;9.55;;;51.40;2227.20;;;;;;5118494;28;20020;-65
2020/12/27 04:46:13;;;;;;;37.53;10.10;;;51.40;2227.20;;;;;;5118176;28;20058;-65
2020/12/27 04:48:40;;;;;;;37.85;10.48;;;51.50;2227.20;;;;;;5118427;28;20027;-65
2020/12/27 04:51:08;;;;;;;74.53;12.05;;;51.50;2227.20;;;;;;5118343;28;20073;-64
2020/12/27 04:53:35;;;;;;;33.15;8.98;;;51.40;2227.20;;;;;;5118103;28;20397;-65
2020/12/27 04:56:02;;;;;;;59.28;9.38;;;51.50;2227.20;;;;;;5117660;28;20059;-66
2020/12/27 04:58:28;;;;;;;74.00;10.82;;;51.60;2227.20;;;;;;5118313;28;20054;-63
2020/12/27 05:00:58;;;;;;;38.45;7.97;;;51.60;2227.20;;;;;;5117986;28;20110;-63
2020/12/27 05:03:24;;;;;;;114.30;11.50;;;51.60;2227.20;;;;;;5118208;28;20028;-65
2020/12/27 05:05:51;;;;;;;53.63;9.43;;;51.60;2227.20;;;;;;5117080;28;20302;-64
2020/12/27 05:08:18;;;;;;;42.97;9.20;;;51.50;2227.20;;;;;;5117214;28;20110;-64
2020/12/27 05:10:45;;;;;;;107.80;11.32;;;51.40;2227.20;;;;;;5118073;28;20031;-66
2020/12/27 05:13:11;;;;;;;38.97;9.90;;;51.30;2227.20;;;;;;5117458;28;20019;-64
2020/12/27 05:15:38;;;;;;;34.92;8.55;;;26.50;2201.60;;;;;;5117685;28;20024;-65
2020/12/27 05:18:05;;;;;;;14.57;8.38;;;51.20;2227.20;;;;;;5117753;28;20114;-65
2020/12/27 05:20:32;;;;;;;15.10;8.45;;;51.20;2227.20;;;;;;5117715;28;20081;-65
2020/12/27 05:23:03;;;;;;;15.82;8.25;;;51.20;2227.20;;;;;;5117957;28;20028;-64
2020/12/27 05:25:29;;;;;;;14.15;8.05;;;51.20;2227.20;;;;;;5118045;28;20028;-66
2020/12/27 05:28:01;;;;;;;15.07;8.50;;;51.30;2227.20;;;;;;5117405;28;20333;-64
2020/12/27 05:30:28;;;;;;;21.17;9.15;;;51.50;2227.20;;;;;;5117557;28;20020;-64
2020/12/27 05:32:54;;;;;;;15.25;8.38;;;51.70;2227.20;;;;;;5117222;28;20433;-68
2020/12/27 05:35:21;;;;;;;14.73;8.15;;;51.70;2227.20;;;;;;5116870;28;20028;-66
2020/12/27 05:37:49;;;;;;;16.95;8.40;;;51.70;2227.20;;;;;;5117557;28;20050;-65
2020/12/27 05:40:15;;;;;;;19.27;8.98;;;51.90;2227.20;;;;;;5117299;28;20030;-64
2020/12/27 05:42:41;;;;;;;18.10;8.23;;;51.90;2227.20;;;;;;5117229;28;20124;-63
2020/12/27 05:45:18;;;;;;;19.08;9.23;;;51.70;2227.20;;;;;;5117541;28;20084;-65
2020/12/27 05:47:46;;;;;;;15.40;7.82;;;51.40;2227.20;;;;;;5117522;28;20465;-63
2020/12/27 05:50:14;;;;;;;16.95;8.20;;;51.20;2227.20;;;;;;5116933;28;20024;-64
2020/12/27 05:52:58;;;;;;;17.33;8.77;;;26.40;2201.60;;;;;;5117450;28;20076;-65
2020/12/27 05:55:24;;;;;;;17.30;7.70;;;26.30;2201.60;;;;;;5117384;28;20024;-63
2020/12/27 05:57:52;;;;;;;16.63;8.68;;;26.20;2201.60;;;;;;5117092;28;20023;-64
2020/12/27 06:00:23;;;;;;;15.63;8.02;;;26.30;2201.60;;;;;;5116963;28;20019;-65
2020/12/27 06:02:59;;;;;;;17.48;8.40;;;26.20;2201.60;;;;;;5117354;28;20405;-65
2020/12/27 06:05:54;;;;;;;19.23;9.20;;;26.20;2201.60;;;;;;5117010;28;20374;-63
2020/12/27 06:08:29;;;;;;;14.73;7.65;;;26.30;2201.60;;;;;;5117367;28;20107;-65
2020/12/27 06:11:20;;;;;;;15.38;7.78;;;26.40;2201.60;;;;;;5116902;28;20020;-65
2020/12/27 06:14:14;;;;;;;14.85;8.23;;;26.40;2201.60;;;;;;5117505;28;20427;-65
2020/12/27 06:16:54;;;;;;;13.55;7.18;;;26.40;2201.60;;;;;;5117155;28;20298;-65
2020/12/27 06:19:26;;;;;;;12.38;6.70;;;26.50;2201.60;;;;;;5120968;28;20028;-65
2020/12/27 06:22:05;;;;;;;12.02;6.13;;;51.20;2227.20;;;;;;5120903;28;20338;-65
2020/12/27 06:24:38;;;;;;;17.33;9.35;;;26.50;2201.60;;;;;;5120657;28;20019;-65
2020/12/27 06:27:05;;;;;;;14.05;7.00;;;26.40;2201.60;;;;;;5120799;28;20069;-66
2020/12/27 06:29:40;;;;;;;15.15;7.65;;;26.30;2201.60;;;;;;5120807;28;20023;-64
2020/12/27 06:32:08;;;;;;;17.23;9.32;;;26.20;2201.60;;;;;;5120598;28;20059;-65
2020/12/27 06:34:34;;;;;;;34.72;19.02;;;26.00;2201.60;;;;;;5120693;28;20019;-63
2020/12/27 06:37:05;;;;;;;16.95;8.95;;;26.00;2201.60;;;;;;5120541;28;20024;-64
2020/12/27 06:39:31;;;;;;;24.02;11.95;;;26.00;2201.60;;;;;;5120375;28;20401;-65
2020/12/27 06:42:28;;;;;;;19.75;9.10;;;26.00;2201.60;;;;;;5119937;28;20102;-64
2020/12/27 06:44:54;;;;;;;19.77;9.40;;;26.00;2201.60;;;;;;5119905;28;20085;-65
2020/12/27 06:47:50;;;;;;;22.85;11.15;;;25.90;2201.60;;;;;;5120442;28;20040;-64
2020/12/27 06:50:17;;;;;;;21.42;10.80;;;25.80;2201.60;;;;;;5120766;28;20020;-64
2020/12/27 06:52:44;;;;;;;24.25;11.20;;;25.80;2201.60;;;;;;5120380;28;20110;-67
2020/12/27 06:55:10;;;;;;;19.42;9.57;;;25.90;2201.60;;;;;;5120607;28;20024;-66
2020/12/27 06:57:46;;;;;;;22.25;10.55;;;25.90;2201.60;;;;;;5120179;28;20059;-65
2020/12/27 07:00:24;;;;;;;4.97;2.78;;;26.00;2201.60;;;;;;5120242;28;20032;-65
2020/12/27 07:03:05;;;;;;;14.13;7.32;;;26.40;2201.60;;;;;;5119840;28;20054;-66
2020/12/27 07:05:36;;;;;;;18.23;10.82;;;51.30;2227.20;;;;;;5120148;28;20297;-65
2020/12/27 07:08:04;;;;;;;15.27;9.13;;;51.20;2227.20;;;;;;5120032;28;20397;-65
2020/12/27 07:10:35;;;;;;;84.23;35.90;;;51.30;2227.20;;;;;;5119985;28;20024;-66
2020/12/27 07:13:06;;;;;;;30.67;14.85;;;51.20;2227.20;;;;;;5119409;28;20050;-63
2020/12/27 07:15:32;;;;;;;17.17;9.02;;;51.20;2227.20;;;;;;5119825;28;20417;-63
2020/12/27 07:18:07;;;;;;;19.38;10.65;;;51.40;2227.20;;;;;;5119213;28;20085;-65
2020/12/27 07:20:33;;;;;;;18.50;9.65;;;51.40;2227.20;;;;;;5119476;28;20030;-64
2020/12/27 07:22:59;;;;;;;20.90;10.57;;;51.50;2227.20;;;;;;5119994;28;20058;-65
2020/12/27 07:25:25;;;;;;;14.77;8.25;;;51.50;2227.20;;;;;;5119690;28;20059;-66
2020/12/27 07:27:51;;;;;;;12.68;6.43;;;51.50;2227.20;;;;;;5119706;28;20020;-66
2020/12/27 07:30:19;;;;;;;11.95;6.00;;;51.60;2227.20;;;;;;5118561;28;20333;-66
2020/12/27 07:32:48;;;;;;;10.37;5.77;;;51.60;2227.20;;;;;;5119644;28;20052;-65
2020/12/27 07:35:14;;;;;;;11.35;5.32;;;51.70;2227.20;;;;;;5119496;28;20019;-65
2020/12/27 07:37:44;;;;;;;4.53;1.75;;;51.70;2227.20;;;;;;5119719;28;20032;-68
2020/12/27 07:40:11;;;;;;;7.95;4.75;;;52.10;2227.20;;;;;;5119326;28;20031;-65
2020/12/27 07:42:37;;;;;;;7.53;4.18;;;52.10;2227.20;;;;;;5118785;28;20024;-65
2020/12/27 07:45:11;;;;;;;6.07;2.40;;;76.80;2227.20;;;;;;5119375;28;20428;-67
2020/12/27 07:47:38;;;;;;;5.78;3.05;;;52.10;2227.20;;;;;;5119372;28;20023;-65
2020/12/27 07:50:07;;;;;;;4.38;2.08;;;76.80;2227.20;;;;;;5118951;28;20030;-66
2020/12/27 07:52:56;;;;;;;4.40;1.65;;;77.00;2227.20;;;;;;5119224;28;20027;-68
2020/12/27 07:55:34;;;;;;;2.95;1.38;;;77.30;2227.20;;;;;;5119210;28;20107;-66
2020/12/27 07:58:07;;;;;;;2.63;1.15;;;77.40;2227.20;;;;;;5119054;27;20023;-66
2020/12/27 08:00:40;;;;;;;2.75;1.50;;;77.60;2227.20;;;;;;5118996;27;20028;-65
2020/12/27 08:03:10;;;;;;;1.63;0.80;;;77.60;2227.20;;;;;;5118997;28;20405;-68
2020/12/27 08:05:37;;;;;;;2.75;1.58;;;77.60;2227.20;;;;;;5118619;28;20325;-65
2020/12/27 08:08:09;;;;;;;6.53;4.90;;;77.60;2227.20;;;;;;5118884;28;20016;-65
2020/12/27 08:10:35;;;;;;;43.80;23.77;;;102.40;2227.20;;;;;;5118133;28;20026;-67
2020/12/27 08:13:03;;;;;;;14.10;7.25;;;102.50;2227.20;;;;;;5118724;28;20016;-66
2020/12/27 08:15:30;;;;;;;6.38;3.63;;;102.50;2227.20;;;;;;5118384;28;20412;-65
2020/12/27 08:18:02;;;;;;;1.65;0.80;;;102.70;2227.20;;;;;;5118696;28;20019;-66
2020/12/27 08:20:29;;;;;;;6.18;3.72;;;102.60;2176.00;;;;;;5119003;28;20020;-66
2020/12/27 08:23:03;;;;;;;8.50;4.60;;;102.70;2201.60;;;;;;5118335;28;20027;-64
2020/12/27 08:25:30;;;;;;;11.18;6.57;;;102.70;2227.20;;;;;;5118869;28;20019;-65
2020/12/27 08:27:57;;;;;;;4.13;1.58;;;102.70;2227.20;;;;;;5118496;28;20413;-67
2020/12/27 08:30:27;;;;;;;5.00;2.45;;;102.80;2124.80;;;;;;5118224;28;20024;-67
2020/12/27 08:33:11;;;;;;;5.03;2.65;;;102.90;2201.60;;;;;;5118788;28;20050;-65
2020/12/27 08:35:39;;;;;;;3.95;2.70;;;103.10;2227.20;;;;;;5117951;28;20044;-65
2020/12/27 08:38:44;;;;;;;1.77;0.87;;;103.20;2176.00;;;;;;5118347;28;20026;-64
2020/12/27 08:41:19;;;;;;;2.58;0.93;;;103.10;2150.40;;;;;;5118361;28;20016;-65
2020/12/27 08:44:11;;;;;;;0.88;0.43;;;103.10;2150.40;;;;;;5117488;28;20451;-65
2020/12/27 08:46:40;;;;;;;8.35;4.97;;;103.30;2124.80;;;;;;5109056;28;20365;-64
2020/12/27 08:49:25;;;;;;;3.38;0.70;;;103.00;2227.20;;;;;;5117885;28;20015;-65
2020/12/27 08:51:58;;;;;;;5.38;2.22;;;103.10;2176.00;;;;;;5118150;28;20023;-65
2020/12/27 08:54:25;;;;;;;78.68;32.33;;;128.30;2150.40;;;;;;5117978;28;20405;-66
2020/12/27 08:56:51;;;;;;;104.20;40.78;;;128.60;2150.40;;;;;;5112983;28;20027;-65
2020/12/27 08:59:17;;;;;;;5.93;2.80;;;128.90;2150.40;;;;;;5106663;28;20027;-64
2020/12/27 09:01:43;;;;;;;13.75;6.80;;;153.70;2048.00;;;;;;5106002;28;20028;-67
2020/12/27 09:04:21;;;;;;;4.75;2.50;;;153.90;2048.00;;;;;;5099538;28;20077;-65
2020/12/27 09:06:54;;;;;;;5.82;3.20;;;153.80;2022.40;;;;;;5097538;28;20034;-66
2020/12/27 09:09:20;;;;;;;3.58;1.60;;;128.90;2022.40;;;;;;5097507;28;20349;-65
2020/12/27 09:11:47;;;;;;;6.95;2.10;;;153.60;2022.40;;;;;;5097173;28;20028;-66
2020/12/27 09:14:30;;;;;;;3.10;0.80;;;128.90;2022.40;;;;;;5097436;28;20078;-64
2020/12/27 09:17:02;;;;;;;1.77;0.98;;;128.60;2048.00;;;;;;5097202;28;20035;-65
2020/12/27 09:19:29;;;;;;;1.23;0.70;;;128.80;2022.40;;;;;;5097465;28;20032;-66
2020/12/27 09:21:55;;;;;;;4.18;1.13;;;128.70;2048.00;;;;;;5097340;28;20030;-66
2020/12/27 09:24:21;;;;;;;2.30;1.33;;;128.90;2022.40;;;;;;5097640;28;20028;-65
2020/12/27 09:26:47;;;;;;;36.38;15.10;;;128.90;2022.40;;;;;;5096423;28;20031;-66
2020/12/27 09:29:17;;;;;;;9.68;5.72;;;153.70;2022.40;;;;;;5097348;28;20028;-65
2020/12/27 09:31:44;;;;;;;1.42;0.75;;;153.80;2073.60;;;;;;5097393;28;20310;-65
2020/12/27 09:34:10;;;;;;;1.83;0.90;;;154.00;1971.20;;;;;;5097088;28;20027;-63
2020/12/27 09:36:37;;;;;;;3.60;1.60;;;154.10;1945.60;;;;;;5097413;28;20039;-65
2020/12/27 09:39:04;;;;;;;2.10;0.90;;;154.10;1996.80;;;;;;5096495;28;20085;-66
2020/12/27 09:41:36;;;;;;;1.77;0.93;;;153.90;1971.20;;;;;;5095697;28;20466;-66
2020/12/27 09:44:03;;;;;;;15.75;9.18;;;153.90;2022.40;;;;;;5096559;28;20102;-64
2020/12/27 09:46:47;;;;;;;3.08;1.30;;;154.00;2048.00;;;;;;5096539;28;20038;-65
2020/12/27 09:49:41;;;;;;;18.92;13.15;;;154.00;1996.80;;;;;;5096862;28;20027;-65
2020/12/27 09:52:15;;;;;;;6.07;2.92;;;154.20;2048.00;;;;;;5095786;28;20437;-64
2020/12/27 09:54:44;;;;;;;4.13;2.47;;;153.90;2022.40;;;;;;5100302;28;20024;-66
2020/12/27 09:57:22;;;;;;;3.70;2.05;;;154.20;2048.00;;;;;;5101178;28;20124;-66
2020/12/27 09:59:50;;;;;;;3.85;2.63;;;154.10;2022.40;;;;;;5101230;28;20073;-65
2020/12/27 10:02:17;;;;;;;2.92;1.77;;;153.80;2099.20;;;;;;5100689;28;20024;-66
2020/12/27 10:04:43;;;;;;;2.05;1.00;;;153.90;2124.80;;;;;;5101187;28;20073;-66
2020/12/27 10:07:10;;;;;;;3.83;1.90;;;154.10;2022.40;;;;;;5100212;28;20028;-64
2020/12/27 10:09:36;;;;;;;6.95;5.30;;;128.90;2099.20;;;;;;5100073;28;20024;-65
2020/12/27 10:12:02;;;;;;;33.53;15.82;;;153.90;2099.20;;;;;;5100688;28;20023;-65
2020/12/27 10:14:28;;;;;;;7.82;3.95;;;154.00;2073.60;;;;;;5100682;28;20024;-65
2020/12/27 10:16:56;;;;;;;5.07;2.38;;;154.50;1971.20;;;;;;5100286;28;20478;-65
2020/12/27 10:19:22;;;;;;;2.22;1.20;;;179.50;1996.80;;;;;;5100519;28;20059;-64
2020/12/27 10:21:48;;;;;;;2.30;1.02;;;179.90;1894.40;;;;;;5100283;28;20036;-66
2020/12/27 10:24:15;;;;;;;1.58;1.10;;;179.80;1894.40;;;;;;5100234;28;20421;-63
2020/12/27 10:26:46;;;;;;;14.90;8.15;;;179.40;1920.00;;;;;;5100151;28;20034;-63
2020/12/27 10:29:12;;;;;;;2.63;1.67;;;179.80;1868.80;;;;;;5100464;28;20027;-64
2020/12/27 10:31:37;;;;;;;2.70;1.90;;;179.50;1920.00;;;;;;5100397;28;20024;-62
2020/12/27 10:34:03;;;;;;;1.60;0.90;;;180.00;1945.60;;;;;;5100093;28;20072;-63
2020/12/27 10:36:29;;;;;;;30.38;11.75;;;179.90;1920.00;;;;;;5099637;28;20031;-65
2020/12/27 10:38:55;;;;;;;2.33;1.20;;;179.60;1996.80;;;;;;5100251;28;20035;-64
2020/12/27 10:41:20;;;;;;;40.60;22.00;;;180.00;1894.40;;;;;;5100188;28;20473;-63
2020/12/27 10:43:49;;;;;;;17.33;8.70;;;180.00;1868.80;;;;;;5099860;28;20023;-64
2020/12/27 10:46:17;;;;;;;13.63;5.55;;;180.00;1945.60;;;;;;5100094;28;20035;-65
2020/12/27 10:48:44;;;;;;;13.57;5.77;;;179.80;1945.60;;;;;;5100297;28;20051;-63
2020/12/27 10:51:10;;;;;;;21.73;6.90;;;179.60;1945.60;;;;;;5100025;28;20160;-65
2020/12/27 10:53:36;;;;;;;20.42;9.52;;;179.20;1996.80;;;;;;5100103;28;20350;-64
2020/12/27 10:56:02;;;;;;;3.55;1.90;;;179.50;2022.40;;;;;;5099306;28;20024;-66
2020/12/27 10:58:28;;;;;;;2.65;1.80;;;179.40;1945.60;;;;;;5099688;28;20122;-64
2020/12/27 11:00:54;;;;;;;76.25;37.97;;;153.80;2048.00;;;;;;5099120;28;20107;-63
2020/12/27 11:03:20;;;;;;;13.88;7.32;;;154.30;2048.00;;;;;;5101881;27;20067;-65
2020/12/27 11:05:47;;;;;;;1.55;0.90;;;154.50;2022.40;;;;;;5118545;27;20114;-64
2020/12/27 11:08:13;;;;;;;14.88;9.40;;;154.50;1971.20;;;;;;5119453;28;20026;-63
2020/12/27 11:10:41;;;;;;;7.85;4.88;;;154.50;1971.20;;;;;;5117936;28;20059;-65
2020/12/27 11:13:07;;;;;;;3.33;2.30;;;154.50;2022.40;;;;;;5119776;28;20024;-64
2020/12/27 11:15:34;;;;;;;2.67;1.10;;;154.50;1996.80;;;;;;5118939;28;20452;-65
2020/12/27 11:18:01;;;;;;;18.77;12.60;;;154.50;1945.60;;;;;;5118293;28;20031;-63
2020/12/27 11:20:28;;;;;;;7.13;5.32;;;154.40;1945.60;;;;;;5115436;28;20024;-65
2020/12/27 11:22:56;;;;;;;1.73;1.13;;;154.10;2022.40;;;;;;5096809;28;20024;-66
2020/12/27 11:25:22;;;;;;;2.80;0.80;;;153.80;1996.80;;;;;;5097201;28;20646;-66
2020/12/27 11:27:48;;;;;;;2.20;1.13;;;154.00;2022.40;;;;;;5100815;27;20031;-65
2020/12/27 11:30:14;;;;;;;4.95;1.73;;;154.20;1996.80;;;;;;5116647;27;20035;-64
2020/12/27 11:32:39;;;;;;;55.03;28.60;;;154.40;1971.20;;;;;;5116360;27;20103;-64
2020/12/27 11:35:05;;;;;;;9.13;4.90;;;179.30;1945.60;;;;;;5116000;28;20020;-64
2020/12/27 11:37:31;;;;;;;6.43;2.85;;;179.60;1894.40;;;;;;5115870;27;20038;-65
2020/12/27 11:39:57;;;;;;;5.43;3.08;;;179.90;1868.80;;;;;;5114524;28;20052;-66
2020/12/27 11:42:26;;;;;;;3.45;1.55;;;205.00;1817.60;;;;;;5116044;27;20028;-64
2020/12/27 11:44:52;;;;;;;2.70;1.40;;;230.50;1689.60;;;;;;5116726;28;20050;-67
2020/12/27 11:47:18;;;;;;;5.47;2.38;;;230.60;1664.00;;;;;;5116314;28;20035;-65
2020/12/27 11:49:44;;;;;;;2.28;1.30;;;230.70;1715.20;;;;;;5116306;28;20027;-64
2020/12/27 11:52:10;;;;;;;1.70;0.93;;;205.50;1766.40;;;;;;5117198;28;20092;-64
2020/12/27 11:54:36;;;;;;;1.80;1.10;;;205.60;1740.80;;;;;;5116865;28;20023;-66
2020/12/27 11:57:02;;;;;;;1.98;1.17;;;205.30;1740.80;;;;;;5115960;28;20317;-66
2020/12/27 11:59:27;;;;;;;2.95;1.40;;;205.10;1740.80;;;;;;5108562;28;20035;-66
2020/12/27 12:01:53;;;;;;;13.05;6.80;;;180.00;1843.20;;;;;;5106091;28;20062;-64
2020/12/27 12:04:19;;;;;;;2.45;1.13;;;179.90;1843.20;;;;;;5115409;28;20035;-67
2020/12/27 12:06:45;;;;;;;1.52;0.70;;;179.30;1868.80;;;;;;5117759;28;20129;-67
2020/12/27 12:09:11;;;;;;;1.77;0.93;;;154.50;1971.20;;;;;;5118664;28;20080;-64
2020/12/27 12:11:39;;;;;;;3.55;1.33;;;154.50;1945.60;;;;;;5118397;28;20027;-66
2020/12/27 12:14:06;;;;;;;1.73;1.00;;;154.00;2022.40;;;;;;5117443;27;20030;-64
2020/12/27 12:16:33;;;;;;;4.60;1.52;;;153.60;2048.00;;;;;;5117173;28;20373;-65
2020/12/27 12:19:00;;;;;;;3.60;1.90;;;128.90;2099.20;;;;;;5117987;28;20031;-67
2020/12/27 12:21:26;;;;;;;2.85;1.40;;;128.80;2022.40;;;;;;5118124;27;20035;-65
2020/12/27 12:23:53;;;;;;;1.90;0.90;;;128.50;2048.00;;;;;;5118204;28;20106;-66